Time;durP1;ratioP1;P1;durP2;ratioP2;P2;SDS_P1;SDS_P2;PMS_P1;PMS_P2;Temp;Humidity;BMP_temperature;BMP_pressure;BME280_temperature;BME280_humidity;BME280_pressure;Samples;Min_cycle;Max_cycle;Signal;HPM_P1;HPM_P2
2023/01/12 00:01:56;;;;;;;29.27;3.60;;;;;;;8.27;100.00;100639.56;5032445;28;20469;-74
2023/01/12 00:04:22;;;;;;;23.02;3.50;;;;;;;8.24;100.00;100620.25;5031663;28;20071;-73
2023/01/12 00:06:48;;;;;;;19.27;3.03;;;;;;;8.16;100.00;100611.34;5030231;28;20525;-72
2023/01/12 00:09:13;;;;;;;31.05;3.75;;;;;;;8.15;100.00;100609.56;5034107;28;20067;-73
2023/01/12 00:11:39;;;;;;;29.80;4.38;;;;;;;8.13;100.00;100611.28;5033709;28;20057;-72
2023/01/12 00:14:07;;;;;;;31.88;4.82;;;;;;;8.10;100.00;100612.97;5034710;28;20817;-73
2023/01/12 00:16:39;;;;;;;30.00;3.65;;;;;;;8.07;100.00;100612.91;5030654;28;20486;-72
2023/01/12 00:19:14;;;;;;;38.25;4.45;;;;;;;8.04;100.00;100601.44;5038381;28;20072;-73
2023/01/12 00:21:48;;;;;;;41.15;5.72;;;;;;;8.00;100.00;100592.63;5032177;28;20532;-74
2023/01/12 00:24:15;;;;;;;37.33;4.63;;;;;;;7.99;100.00;100584.72;5036146;28;20079;-74
2023/01/12 00:26:41;;;;;;;32.40;3.90;;;;;;;8.02;100.00;100583.09;5038830;28;20436;-74
2023/01/12 00:29:06;;;;;;;39.33;4.82;;;;;;;8.00;100.00;100584.75;5033708;28;20359;-75
2023/01/12 00:31:31;;;;;;;50.88;6.13;;;;;;;8.02;100.00;100590.94;5029530;28;20354;-75
2023/01/12 00:33:57;;;;;;;41.72;5.40;;;;;;;8.02;100.00;100576.97;5032466;28;20032;-75
2023/01/12 00:36:22;;;;;;;52.45;6.88;;;;;;;8.02;100.00;100583.09;5036753;28;20030;-73
2023/01/12 00:38:47;;;;;;;51.97;4.97;;;;;;;8.06;100.00;100568.31;5035998;28;20068;-74
2023/01/12 00:45:20;;;;;;;50.85;4.70;;;;;;;8.09;100.00;100561.41;5028503;28;20025;-73
2023/01/12 00:46:45;;;;;;;57.60;7.45;;;;;;;8.12;100.00;100555.34;5040766;28;20048;-74
2023/01/12 00:49:10;;;;;;;53.25;6.45;;;;;;;8.14;100.00;100544.88;5033169;28;20111;-73
2023/01/12 00:51:36;;;;;;;63.30;6.68;;;;;;;8.13;100.00;100553.63;5032488;28;20033;-73
2023/01/12 00:54:03;;;;;;;68.07;6.85;;;;;;;8.18;100.00;100536.22;5032640;28;20033;-73
2023/01/12 00:56:30;;;;;;;62.70;6.65;;;;;;;8.19;100.00;100533.69;5032784;28;20022;-73
2023/01/12 00:58:55;;;;;;;53.58;6.55;;;;;;;8.20;100.00;100535.41;5031565;28;20083;-73
2023/01/12 01:01:21;;;;;;;58.40;6.78;;;;;;;8.21;100.00;100525.84;5029886;28;20049;-74
2023/01/12 01:03:46;;;;;;;65.53;6.90;;;;;;;8.24;100.00;100533.75;5030416;28;20068;-73
2023/01/12 01:06:12;;;;;;;69.45;8.18;;;;;;;8.24;100.00;100521.53;5042287;28;20469;-73
2023/01/12 01:08:37;;;;;;;56.85;7.95;;;;;;;8.25;100.00;100520.69;5044977;28;20128;-74
2023/01/12 01:11:05;;;;;;;42.10;6.00;;;;;;;8.34;100.00;100512.13;5034083;28;20554;-73
2023/01/12 01:13:30;;;;;;;57.63;8.52;;;;;;;8.38;100.00;100513.97;5031873;28;20501;-73
2023/01/12 01:16:00;;;;;;;46.42;6.35;;;;;;;8.40;100.00;100501.75;5037709;28;20107;-73
2023/01/12 01:18:26;;;;;;;51.55;7.30;;;;;;;8.43;100.00;100503.56;5032266;28;20116;-73
2023/01/12 01:20:52;;;;;;;75.72;8.55;;;;;;;8.41;100.00;100492.13;5032563;28;20232;-73
2023/01/12 01:23:17;;;;;;;69.82;8.23;;;;;;;8.41;100.00;100503.53;5031508;28;20087;-73
2023/01/12 01:25:43;;;;;;;57.47;7.00;;;;;;;8.43;100.00;100509.66;5037811;28;20055;-73
2023/01/12 01:28:08;;;;;;;46.33;6.50;;;;;;;8.44;100.00;100508.81;5039496;28;20038;-74
2023/01/12 01:30:33;;;;;;;46.75;6.28;;;;;;;8.43;100.00;100496.56;5029378;28;20433;-73
2023/01/12 01:32:59;;;;;;;48.33;7.43;;;;;;;8.44;100.00;100495.72;5029512;28;20151;-73
2023/01/12 01:35:24;;;;;;;43.55;6.47;;;;;;;8.47;100.00;100491.44;5030598;28;20549;-74
2023/01/12 01:37:49;;;;;;;40.60;6.18;;;;;;;8.41;100.00;100495.66;5031885;28;20104;-74
2023/01/12 01:40:15;;;;;;;56.13;7.10;;;;;;;8.39;100.00;100489.50;5047047;28;20113;-74
2023/01/12 01:42:40;;;;;;;47.15;5.40;;;;;;;8.41;100.00;100486.91;5032971;28;20165;-74
2023/01/12 01:45:10;;;;;;;50.10;4.88;;;;;;;8.39;100.00;100481.63;5029230;28;20029;-73
2023/01/12 01:47:40;;;;;;;52.03;5.30;;;;;;;8.39;100.00;100467.66;5032411;28;20037;-74
2023/01/12 01:50:22;;;;;;;33.03;5.45;;;;;;;8.42;100.00;100478.19;5060023;28;20052;-74
2023/01/12 01:52:53;;;;;;;38.13;4.90;;;;;;;8.40;100.00;100459.81;5033107;28;20024;-75
2023/01/12 01:55:28;;;;;;;27.13;4.82;;;;;;;8.38;100.00;100460.63;5064657;28;20037;-74
2023/01/12 01:57:59;;;;;;;19.15;4.72;;;;;;;8.38;100.00;100461.53;5048680;28;20025;-73
2023/01/12 02:00:25;;;;;;;47.63;4.05;;;;;;;8.34;100.00;100445.69;5028704;28;20045;-74
2023/01/12 02:02:51;;;;;;;35.90;4.25;;;;;;;8.31;100.00;100437.78;5031188;28;20381;-74
2023/01/12 02:05:20;;;;;;;33.67;3.95;;;;;;;8.29;100.00;100450.84;5034864;28;20017;-74
2023/01/12 02:07:47;;;;;;;30.52;4.75;;;;;;;8.27;100.00;100437.72;5032807;28;20397;-73
2023/01/12 02:10:12;;;;;;;34.92;4.93;;;;;;;8.27;100.00;100440.34;5030340;28;20021;-73
2023/01/12 02:18:35;;;;;;;28.15;3.97;;;;;;;8.30;100.00;100400.19;5029536;28;20436;-74
2023/01/12 02:21:26;;;;;;;22.98;3.22;;;;;;;8.35;100.00;100390.66;5010696;28;20069;-72
2023/01/12 02:24:25;;;;;;;28.50;4.47;;;;;;;8.34;100.00;100391.53;5026390;28;20040;-74
2023/01/12 02:27:32;;;;;;;27.38;4.10;;;;;;;8.37;100.00;100381.09;5047523;28;20028;-74
2023/01/12 02:30:35;;;;;;;34.58;3.72;;;;;;;8.43;100.00;100390.81;5017914;28;20124;-73
2023/01/12 02:33:18;;;;;;;43.53;4.80;;;;;;;8.41;100.00;100382.94;5062508;28;20072;-73
2023/01/12 02:35:53;;;;;;;23.07;4.37;;;;;;;8.40;100.00;100381.16;5027920;28;20079;-74
2023/01/12 02:38:33;;;;;;;33.55;4.30;;;;;;;8.38;100.00;100377.63;5032760;28;20104;-74
2023/01/12 02:41:17;;;;;;;33.08;4.35;;;;;;;8.36;100.00;100381.09;5036216;28;20024;-75
2023/01/12 02:43:43;;;;;;;39.85;4.53;;;;;;;8.30;100.00;100366.09;5027461;28;20498;-75
2023/01/12 02:46:17;;;;;;;27.27;3.67;;;;;;;8.27;100.00;100363.44;5034303;28;20071;-74
2023/01/12 02:49:09;;;;;;;22.33;2.97;;;;;;;8.23;100.00;100348.50;5036976;28;20036;-74
2023/01/12 02:51:44;;;;;;;21.52;2.92;;;;;;;8.18;100.00;100326.56;5027397;28;20525;-74
2023/01/12 02:54:14;;;;;;;28.38;3.80;;;;;;;8.16;100.00;100318.69;5036017;28;20021;-74
2023/01/12 02:56:44;;;;;;;24.73;3.40;;;;;;;8.13;100.00;100307.28;5036290;28;20029;-75
2023/01/12 02:59:28;;;;;;;25.30;3.30;;;;;;;8.12;100.00;100300.28;5034176;28;20025;-74
2023/01/12 03:01:59;;;;;;;30.02;2.92;;;;;;;8.10;100.00;100290.63;5030240;28;20382;-76
2023/01/12 03:04:26;;;;;;;19.30;2.97;;;;;;;8.14;100.00;100304.69;5031665;28;20060;-73
2023/01/12 03:06:55;;;;;;;20.67;3.65;;;;;;;8.13;100.00;100279.31;5039393;28;20053;-74
2023/01/12 03:09:24;;;;;;;22.17;3.42;;;;;;;8.15;100.00;100267.13;5027270;28;20044;-75
2023/01/12 03:11:54;;;;;;;35.13;4.43;;;;;;;8.17;100.00;100282.91;5034234;28;20056;-75
2023/01/12 03:14:21;;;;;;;26.15;3.97;;;;;;;8.19;100.00;100265.44;5039980;28;20107;-76
2023/01/12 03:16:49;;;;;;;24.70;3.85;;;;;;;8.16;100.00;100229.56;5034818;28;20025;-75
2023/01/12 03:19:19;;;;;;;27.30;2.97;;;;;;;8.17;100.00;100209.50;5028596;28;20393;-73
2023/01/12 03:21:52;;;;;;;25.73;3.20;;;;;;;8.16;100.00;100207.75;5031840;28;20037;-74
2023/01/12 03:24:32;;;;;;;19.67;3.10;;;;;;;8.15;100.00;100196.34;5037065;28;20068;-74
2023/01/12 03:27:04;;;;;;;15.02;2.40;;;;;;;8.13;100.00;100182.38;5047095;28;20055;-74
2023/01/12 03:30:06;;;;;;;17.42;2.45;;;;;;;8.12;100.00;100185.84;5031022;28;20025;-74
2023/01/12 03:32:31;;;;;;;15.63;2.58;;;;;;;8.10;100.00;100150.88;5018157;28;20080;-74
2023/01/12 03:34:58;;;;;;;16.05;3.05;;;;;;;8.06;100.00;100128.97;5034028;28;20025;-74
2023/01/12 03:37:26;;;;;;;16.63;2.75;;;;;;;8.04;100.00;100138.53;5035364;28;20112;-74
2023/01/12 03:39:59;;;;;;;9.85;2.65;;;;;;;8.01;100.00;100146.34;5032346;28;20017;-73
2023/01/12 03:42:27;;;;;;;22.63;3.15;;;;;;;8.02;100.00;100132.41;5030262;28;20029;-73
2023/01/12 03:45:06;;;;;;;13.02;2.50;;;;;;;7.97;100.00;100123.59;5033072;28;20092;-75
2023/01/12 03:47:33;;;;;;;9.18;2.05;;;;;;;7.93;100.00;100129.63;5044673;28;20057;-74
2023/01/12 03:50:08;;;;;;;17.00;3.45;;;;;;;7.92;100.00;100120.91;5033633;28;20389;-74
2023/01/12 03:52:36;;;;;;;9.15;3.03;;;;;;;7.89;100.00;100109.50;5033462;28;20031;-74
2023/01/12 03:55:04;;;;;;;11.80;3.08;;;;;;;7.89;100.00;100109.50;5034499;28;20036;-75
2023/01/12 03:57:31;;;;;;;16.40;4.05;;;;;;;7.87;100.00;100100.75;5031017;28;20033;-75
2023/01/12 03:59:59;;;;;;;9.13;2.50;;;;;;;7.89;100.00;100117.34;5033513;28;20049;-75
2023/01/12 04:02:25;;;;;;;11.00;3.25;;;;;;;7.87;100.00;100075.44;5038839;28;20453;-76
2023/01/12 04:04:50;;;;;;;13.23;2.78;;;;;;;7.86;100.00;100067.53;5032902;28;20029;-75
2023/01/12 04:07:15;;;;;;;10.95;3.00;;;;;;;7.86;100.00;100068.41;5032816;28;20033;-76
2023/01/12 04:09:41;;;;;;;14.85;3.63;;;;;;;7.86;100.00;100054.44;5033228;28;20041;-76
2023/01/12 04:12:09;;;;;;;10.15;4.05;;;;;;;7.84;100.00;100056.16;5035898;28;20040;-75
2023/01/12 04:14:36;;;;;;;6.80;2.88;;;;;;;7.85;100.00;100071.03;5033643;28;20119;-76
2023/01/12 04:17:01;;;;;;;9.95;4.03;;;;;;;7.83;100.00;100059.66;5031060;28;20036;-76
2023/01/12 04:19:26;;;;;;;11.07;3.80;;;;;;;7.83;100.00;100073.63;5032715;28;20029;-76
2023/01/12 04:24:36;;;;;;;;;;;;;;;7.84;100.00;100066.63;5035875;28;20053;-75
2023/01/12 04:27:01;;;;;;;6.45;2.58;;;;;;;7.84;100.00;100040.44;5030645;28;19917;-75
2023/01/12 04:29:26;;;;;;;11.57;3.05;;;;;;;7.86;100.00;100041.34;5033138;28;20034;-75
2023/01/12 04:31:52;;;;;;;12.13;3.35;;;;;;;7.85;100.00;100029.97;5041184;28;20021;-76
2023/01/12 04:34:18;;;;;;;12.20;3.55;;;;;;;7.87;100.00;100048.38;5035557;28;20029;-75
2023/01/12 04:36:43;;;;;;;11.52;2.28;;;;;;;7.88;100.00;100034.38;5033742;28;20460;-76
2023/01/12 04:39:09;;;;;;;5.93;1.75;;;;;;;7.90;100.00;100002.13;5033054;28;20048;-76
2023/01/12 04:41:34;;;;;;;6.38;1.98;;;;;;;7.89;100.00;100036.16;5062713;28;20159;-75
2023/01/12 04:43:59;;;;;;;9.63;2.25;;;;;;;7.92;100.00;100041.44;5030038;28;20075;-75
2023/01/12 04:46:25;;;;;;;9.18;2.17;;;;;;;7.93;100.00;100017.91;5031499;28;20041;-76
2023/01/12 04:48:50;;;;;;;9.10;2.20;;;;;;;7.96;100.00;100029.25;5033149;28;20057;-76
2023/01/12 04:51:15;;;;;;;7.32;1.98;;;;;;;7.97;100.00;100029.28;5032023;28;20083;-77
2023/01/12 04:53:41;;;;;;;15.57;2.40;;;;;;;7.97;100.00;100018.81;5036224;28;20032;-76
2023/01/12 04:56:07;;;;;;;6.03;1.90;;;;;;;8.01;100.00;100025.84;5031900;28;20412;-77
2023/01/12 04:58:34;;;;;;;10.15;2.35;;;;;;;8.01;100.00;100041.56;5031833;28;20195;-77
2023/01/12 05:01:10;;;;;;;5.38;1.60;;;;;;;8.06;100.00;100039.88;5031041;28;20046;-75
2023/01/12 05:03:35;;;;;;;10.30;2.42;;;;;;;8.12;100.00;100031.22;5037245;28;20036;-77
2023/01/12 05:06:02;;;;;;;7.65;1.60;;;;;;;8.12;100.00;100038.22;5032039;28;20021;-78
2023/01/12 05:11:11;;;;;;;3.20;1.60;;;;;;;8.15;100.00;100027.78;5032125;28;20563;-76
2023/01/12 05:13:36;;;;;;;5.30;1.40;;;;;;;8.17;100.00;100021.69;5030382;28;20030;-77
2023/01/12 05:16:14;;;;;;;3.83;1.15;;;;;;;8.21;100.00;100033.97;5024517;28;20047;-77
2023/01/12 05:18:40;;;;;;;6.38;0.98;;;;;;;8.27;100.00;100043.66;5032680;28;20033;-76
2023/01/12 05:21:06;;;;;;;6.53;1.15;;;;;;;8.35;100.00;100036.75;5030349;28;20021;-76
2023/01/12 05:23:31;;;;;;;17.40;1.67;;;;;;;8.45;100.00;100016.84;5026907;28;20036;-78
2023/01/12 05:25:58;;;;;;;2.95;0.90;;;;;;;8.53;100.00;100035.25;5029301;28;20022;-77
2023/01/12 05:28:24;;;;;;;6.20;1.15;;;;;;;8.59;100.00;100017.00;5028606;28;20481;-75
2023/01/12 05:30:50;;;;;;;4.50;0.93;;;;;;;8.70;100.00;100014.50;5029737;28;20037;-76
2023/01/12 05:33:15;;;;;;;5.63;1.42;;;;;;;8.77;100.00;100027.66;5031475;28;20039;-74
2023/01/12 05:35:41;;;;;;;11.68;1.42;;;;;;;8.78;100.00;100016.31;5033090;28;20017;-75
2023/01/12 05:38:06;;;;;;;2.70;0.90;;;;;;;8.83;100.00;100012.84;5025473;28;20029;-78
2023/01/12 05:40:31;;;;;;;5.90;1.35;;;;;;;8.91;100.00;100013.81;5028353;28;20029;-75
2023/01/12 05:45:41;;;;;;;;;;;;;;;9.05;100.00;100009.59;5026700;28;20088;-75
2023/01/12 05:48:08;;;;;;;15.48;1.48;;;;;;;9.04;100.00;100013.06;5029962;28;20471;-77
2023/01/12 05:50:33;;;;;;;8.98;1.42;;;;;;;9.06;100.00;100036.69;5028795;28;20026;-75
2023/01/12 05:52:59;;;;;;;13.63;1.75;;;;;;;9.11;100.00;100022.78;5023347;28;20038;-75
2023/01/12 05:55:24;;;;;;;11.18;1.67;;;;;;;9.16;100.00;100029.81;5033140;28;20044;-75
2023/01/12 05:57:50;;;;;;;8.55;1.50;;;;;;;9.17;100.00;100024.56;5027863;28;20121;-74
2023/01/12 06:00:16;;;;;;;21.65;3.15;;;;;;;9.23;100.00;100018.50;5028532;28;20041;-76
2023/01/12 06:02:41;;;;;;;10.30;2.70;;;;;;;9.32;100.00;100034.34;5037152;28;20475;-76
2023/01/12 06:05:08;;;;;;;17.02;2.15;;;;;;;9.35;100.00;100025.59;5032820;28;20033;-75
2023/01/12 06:07:34;;;;;;;17.67;2.60;;;;;;;9.40;100.00;100018.63;5029260;28;20052;-76
2023/01/12 06:09:59;;;;;;;26.88;3.25;;;;;;;9.47;100.00;100016.94;5030606;28;20458;-75
2023/01/12 06:15:08;;;;;;;21.65;3.45;;;;;;;9.52;100.00;100036.22;5027267;28;20083;-76
2023/01/12 06:17:34;;;;;;;29.67;4.07;;;;;;;9.55;100.00;100025.75;5027020;28;20478;-75
2023/01/12 06:19:59;;;;;;;24.02;4.15;;;;;;;9.61;100.00;100034.53;5028053;28;20017;-75
2023/01/12 06:22:26;;;;;;;31.77;4.65;;;;;;;9.62;100.00;100027.56;5031128;28;20029;-75
2023/01/12 06:24:53;;;;;;;27.00;4.15;;;;;;;9.64;100.00;100031.06;5026827;28;20048;-75
2023/01/12 06:27:18;;;;;;;40.80;5.78;;;;;;;9.66;100.00;100029.34;5027393;28;20392;-75
2023/01/12 06:29:43;;;;;;;26.17;5.05;;;;;;;9.73;100.00;100030.25;5029240;28;20037;-75
2023/01/12 06:32:10;;;;;;;35.40;4.60;;;;;;;9.79;100.00;100035.53;5031419;28;20106;-74
2023/01/12 06:34:36;;;;;;;42.10;5.32;;;;;;;9.76;100.00;100031.16;5035846;28;20044;-75
2023/01/12 06:37:06;;;;;;;33.03;5.05;;;;;;;9.78;100.00;100055.69;5032293;28;20041;-75
2023/01/12 06:39:31;;;;;;;78.68;7.85;;;;;;;9.85;100.00;100079.38;5032525;28;20040;-74
2023/01/12 06:44:41;;;;;;;33.22;5.95;;;;;;;9.89;100.00;100041.72;5033837;28;20039;-75
2023/01/12 06:47:06;;;;;;;75.15;8.85;;;;;;;9.89;100.00;100033.84;5038829;28;20025;-75
2023/01/12 06:49:33;;;;;;;39.13;4.97;;;;;;;9.92;100.00;100028.63;5033250;28;20033;-74
2023/01/12 06:51:58;;;;;;;49.67;6.10;;;;;;;9.98;100.00;100064.59;5033454;28;20056;-75
2023/01/12 06:54:24;;;;;;;53.00;7.13;;;;;;;10.00;100.00;100053.22;5032641;28;20068;-74
2023/01/12 06:56:49;;;;;;;50.78;7.80;;;;;;;10.02;100.00;100058.47;5030515;28;20032;-76
2023/01/12 06:59:14;;;;;;;36.45;4.97;;;;;;;10.03;100.00;100060.25;5031609;28;20228;-75
2023/01/12 07:01:40;;;;;;;48.63;6.75;;;;;;;10.01;100.00;100062.88;5027524;28;20084;-74
2023/01/12 07:04:06;;;;;;;28.45;5.32;;;;;;;10.07;100.00;100041.84;5030106;28;20461;-76
2023/01/12 07:06:32;;;;;;;56.60;7.15;;;;;;;10.03;100.00;100071.63;5031403;28;20060;-74
2023/01/12 07:08:57;;;;;;;33.20;6.40;;;;;;;10.06;100.00;100089.16;5032833;28;20060;-75
2023/01/12 07:11:23;;;;;;;49.25;5.68;;;;;;;10.06;100.00;100069.00;5061880;28;20064;-75
2023/01/12 07:13:48;;;;;;;47.28;6.30;;;;;;;10.05;100.00;100063.75;5044683;28;20056;-74
2023/01/12 07:16:14;;;;;;;44.00;6.25;;;;;;;10.01;100.00;100062.88;5051345;28;20103;-74
2023/01/12 07:18:39;;;;;;;38.40;4.80;;;;;;;9.95;100.00;100058.41;5045492;28;20033;-75
2023/01/12 07:21:06;;;;;;;36.72;5.70;;;;;;;9.94;100.00;100064.56;5051043;28;20017;-73
2023/01/12 07:23:32;;;;;;;40.97;5.65;;;;;;;9.91;100.00;100082.91;5034407;28;20060;-74
2023/01/12 07:25:57;;;;;;;45.95;4.97;;;;;;;9.91;100.00;100087.31;5036277;28;20123;-74
2023/01/12 07:28:23;;;;;;;35.75;5.00;;;;;;;9.92;100.00;100104.84;5035307;28;20459;-74
2023/01/12 07:30:49;;;;;;;38.55;4.85;;;;;;;9.93;100.00;100080.34;5043578;28;20485;-74
2023/01/12 07:33:14;;;;;;;42.80;6.93;;;;;;;9.92;100.00;100089.06;5031962;28;20469;-73
2023/01/12 07:35:41;;;;;;;31.75;5.53;;;;;;;9.92;100.00;100110.09;5029439;28;20042;-73
2023/01/12 07:38:07;;;;;;;35.60;4.65;;;;;;;9.92;100.00;100096.97;5031630;28;20063;-74
2023/01/12 07:40:33;;;;;;;29.65;5.35;;;;;;;9.93;100.00;100101.34;5031161;28;20025;-75
2023/01/12 07:43:03;;;;;;;44.33;5.45;;;;;;;9.93;100.00;100091.72;5031807;28;20499;-74
2023/01/12 07:45:29;;;;;;;36.35;5.50;;;;;;;9.94;100.00;100108.34;5030088;28;20473;-74
2023/01/12 07:47:55;;;;;;;39.47;4.85;;;;;;;9.90;100.00;100107.47;5031466;28;20032;-73
2023/01/12 07:50:22;;;;;;;38.63;5.10;;;;;;;9.88;100.00;100114.44;5035319;28;20055;-74
2023/01/12 07:52:48;;;;;;;37.13;5.22;;;;;;;9.93;100.00;100106.63;5031557;28;20029;-75
2023/01/12 07:55:18;;;;;;;38.67;4.82;;;;;;;9.92;100.00;100120.63;5030238;28;20099;-74
2023/01/12 07:57:54;;;;;;;41.35;5.53;;;;;;;9.92;100.00;100121.47;5033784;28;20043;-76
2023/01/12 08:00:22;;;;;;;49.17;6.00;;;;;;;9.97;100.00;100113.66;5043402;28;20042;-74
2023/01/12 08:03:08;;;;;;;35.83;4.72;;;;;;;9.98;100.00;100112.75;5040700;28;20029;-74
2023/01/12 08:05:34;;;;;;;31.35;4.80;;;;;;;10.00;100.00;100124.19;5032708;28;20127;-74
2023/01/12 08:08:00;;;;;;;46.10;5.95;;;;;;;10.04;100.00;100117.19;5030624;28;20108;-75
2023/01/12 08:10:26;;;;;;;42.33;5.07;;;;;;;10.00;100.00;100124.19;5033622;28;20112;-75
2023/01/12 08:12:51;;;;;;;63.20;6.47;;;;;;;10.05;100.00;100117.22;5035289;28;20040;-76
2023/01/12 08:15:17;;;;;;;44.58;6.13;;;;;;;10.10;100.00;100127.75;5034565;28;20028;-74
2023/01/12 08:17:53;;;;;;;42.92;5.47;;;;;;;10.10;100.00;100125.13;5035258;28;20417;-74
2023/01/12 08:20:26;;;;;;;34.85;4.15;;;;;;;10.10;100.00;100131.25;5030222;28;20025;-75
2023/01/12 08:22:57;;;;;;;52.30;4.90;;;;;;;10.20;100.00;100139.19;5049821;28;20018;-73
2023/01/12 08:25:29;;;;;;;37.50;4.72;;;;;;;10.21;100.00;100139.19;5055860;28;20276;-74
2023/01/12 08:27:59;;;;;;;37.85;4.90;;;;;;;10.26;100.00;100149.75;5033811;28;20485;-75
2023/01/12 08:30:25;;;;;;;40.95;6.10;;;;;;;10.26;100.00;100157.66;5032344;28;20116;-74
2023/01/12 08:32:55;;;;;;;32.22;3.88;;;;;;;10.23;100.00;100168.16;5063412;28;20021;-75
2023/01/12 08:35:24;;;;;;;38.63;6.07;;;;;;;10.27;100.00;100141.00;5033417;28;20033;-74
2023/01/12 08:37:49;;;;;;;39.38;5.28;;;;;;;10.26;100.00;100155.03;5033082;28;20017;-73
2023/01/12 08:40:15;;;;;;;43.38;6.53;;;;;;;10.30;100.00;100154.19;5032735;28;20116;-75
2023/01/12 08:42:40;;;;;;;37.28;5.50;;;;;;;10.28;100.00;100155.91;5033607;28;20055;-75
2023/01/12 08:45:07;;;;;;;40.60;5.80;;;;;;;10.29;100.00;100168.19;5034153;28;20550;-75
2023/01/12 08:47:33;;;;;;;38.70;5.03;;;;;;;10.27;100.00;100155.03;5030662;28;20052;-75
2023/01/12 08:49:59;;;;;;;36.72;6.63;;;;;;;10.31;100.00;100161.19;5034231;28;20029;-75
2023/01/12 08:52:28;;;;;;;45.22;7.03;;;;;;;10.34;100.00;100163.84;5031999;28;20051;-74
2023/01/12 08:54:54;;;;;;;49.72;6.18;;;;;;;10.32;100.00;100162.94;5034441;28;20025;-75
2023/01/12 08:57:20;;;;;;;47.30;5.43;;;;;;;10.34;100.00;100181.38;5038585;28;20469;-74
2023/01/12 08:59:45;;;;;;;49.00;5.97;;;;;;;10.38;100.00;100152.50;5034119;28;20025;-74
2023/01/12 09:02:13;;;;;;;38.78;5.28;;;;;;;10.41;100.00;100170.06;5034633;28;20041;-75
2023/01/12 09:04:39;;;;;;;38.10;5.78;;;;;;;10.40;100.00;100166.53;5035153;28;20164;-74
2023/01/12 09:07:09;;;;;;;29.48;3.67;;;;;;;10.41;100.00;100168.28;5039213;28;20025;-74
2023/01/12 09:09:35;;;;;;;30.23;4.82;;;;;;;10.41;100.00;100173.56;5047315;28;20032;-74
2023/01/12 09:12:00;;;;;;;48.05;6.85;;;;;;;10.43;100.00;100187.59;5032472;28;20064;-73
2023/01/12 09:14:26;;;;;;;59.28;8.15;;;;;;;10.44;100.00;100186.75;5033732;28;20055;-74
2023/01/12 09:16:52;;;;;;;52.22;6.05;;;;;;;10.45;100.00;100199.00;5028979;28;20068;-74
2023/01/12 09:19:17;;;;;;;51.45;6.53;;;;;;;10.49;100.00;100197.28;5032612;28;20033;-74
2023/01/12 09:21:43;;;;;;;47.65;7.38;;;;;;;10.49;100.00;100206.94;5031805;28;20113;-74
2023/01/12 09:24:10;;;;;;;33.08;4.75;;;;;;;10.52;100.00;100197.28;5034888;28;20491;-74
2023/01/12 09:26:41;;;;;;;34.90;4.95;;;;;;;10.54;100.00;100206.09;5032364;28;20036;-73
2023/01/12 09:29:08;;;;;;;39.47;5.93;;;;;;;10.56;100.00;100208.72;5032520;28;20062;-74
2023/01/12 09:31:36;;;;;;;39.25;5.53;;;;;;;10.59;100.00;100216.63;5029681;28;20030;-75
2023/01/12 09:34:01;;;;;;;48.03;5.47;;;;;;;10.59;100.00;100214.00;5031568;28;20496;-74
2023/01/12 09:36:29;;;;;;;42.13;5.35;;;;;;;10.62;100.00;100208.75;5029228;28;20025;-74
2023/01/12 09:38:55;;;;;;;25.85;4.85;;;;;;;10.60;100.00;100221.03;5037251;28;20033;-74
2023/01/12 09:47:29;;;;;;;27.23;5.03;;;;;;;10.63;100.00;100237.72;5026890;28;20089;-72
2023/01/12 09:50:09;;;;;;;33.65;4.97;;;;;;;10.61;100.00;100249.09;5031629;28;20029;-74
2023/01/12 09:52:41;;;;;;;31.33;4.28;;;;;;;10.58;100.00;100249.06;5032639;28;20056;-74
2023/01/12 09:55:14;;;;;;;29.90;4.15;;;;;;;10.57;100.00;100236.81;5032363;28;20120;-74
2023/01/12 09:58:13;;;;;;;28.33;4.32;;;;;;;10.50;100.00;100256.91;5013975;28;20033;-74
2023/01/12 10:00:38;;;;;;;30.00;5.20;;;;;;;10.49;100.00;100251.66;5018027;28;20060;-74
2023/01/12 10:03:10;;;;;;;48.03;5.18;;;;;;;10.48;100.00;100263.03;5042707;28;20030;-74
2023/01/12 10:05:39;;;;;;;39.15;5.30;;;;;;;10.42;100.00;100262.13;5031584;28;20095;-74
2023/01/12 10:08:13;;;;;;;34.60;5.30;;;;;;;10.35;100.00;100262.94;5034038;28;20021;-74
2023/01/12 10:10:44;;;;;;;37.65;5.45;;;;;;;10.27;100.00;100264.59;5030786;28;20088;-74
2023/01/12 10:13:13;;;;;;;38.72;7.85;;;;;;;10.24;100.00;100262.81;5026725;28;20037;-75
2023/01/12 10:15:52;;;;;;;28.90;4.88;;;;;;;10.32;100.00;100262.88;5030600;28;20032;-73
2023/01/12 10:18:29;;;;;;;37.00;6.25;;;;;;;10.32;100.00;100296.19;5032099;28;20034;-75
2023/01/12 10:20:57;;;;;;;41.72;6.85;;;;;;;10.35;100.00;100268.22;5036038;28;20453;-74
2023/01/12 10:23:26;;;;;;;41.25;7.15;;;;;;;10.35;100.00;100270.84;5030988;28;20029;-74
2023/01/12 10:26:24;;;;;;;33.17;5.18;;;;;;;10.36;100.00;100269.06;5031866;28;20048;-73
2023/01/12 10:28:53;;;;;;;26.15;5.85;;;;;;;10.37;100.00;100270.84;5031647;28;20032;-73
2023/01/12 10:31:20;;;;;;;32.13;4.57;;;;;;;10.37;100.00;100266.44;5030636;28;20124;-73
2023/01/12 10:34:10;;;;;;;45.80;5.63;;;;;;;10.39;100.00;100269.09;5029237;28;20025;-74
2023/01/12 10:36:41;;;;;;;41.47;4.43;;;;;;;10.38;100.00;100278.75;5031483;28;20128;-74
2023/01/12 10:39:30;;;;;;;38.55;5.38;;;;;;;10.41;100.00;100268.25;5031543;28;20033;-74
2023/01/12 10:45:15;;;;;;;28.45;4.47;;;;;;;10.49;100.00;100281.47;5048925;28;20043;-74
2023/01/12 10:47:41;;;;;;;35.95;5.18;;;;;;;10.53;100.00;100271.84;5044714;28;20025;-75
2023/01/12 10:50:21;;;;;;;42.05;5.15;;;;;;;10.53;100.00;100267.47;5032139;28;20060;-75
2023/01/12 10:52:49;;;;;;;44.40;5.35;;;;;;;10.52;100.00;100280.59;5034004;28;20107;-74
2023/01/12 10:55:20;;;;;;;30.63;5.18;;;;;;;10.57;100.00;100263.13;5032083;28;20033;-75
2023/01/12 10:57:49;;;;;;;44.75;5.03;;;;;;;10.59;100.00;100261.34;5032356;28;20032;-74
2023/01/12 11:00:24;;;;;;;31.75;4.43;;;;;;;10.61;100.00;100255.25;5027667;28;20073;-76
2023/01/12 11:02:50;;;;;;;34.47;5.03;;;;;;;10.67;100.00;100249.13;5029635;28;20032;-75
2023/01/12 11:05:35;;;;;;;31.08;4.15;;;;;;;10.68;100.00;100252.66;5032125;28;20428;-74
2023/01/12 11:08:01;;;;;;;38.20;3.83;;;;;;;10.71;100.00;100264.06;5030831;28;20436;-73
2023/01/12 11:10:30;;;;;;;25.13;4.20;;;;;;;10.67;100.00;100254.41;5032012;28;20022;-76
2023/01/12 11:13:02;;;;;;;38.88;5.03;;;;;;;10.72;100.00;100244.78;5039346;28;20062;-75
2023/01/12 11:15:28;;;;;;;24.38;3.78;;;;;;;10.69;100.00;100257.94;5029527;28;20024;-73
2023/01/12 11:18:02;;;;;;;33.08;6.00;;;;;;;10.71;100.00;100256.16;5060058;28;20053;-74
2023/01/12 11:20:38;;;;;;;35.95;3.78;;;;;;;10.71;100.00;100256.16;5024692;28;20779;-73
2023/01/12 11:23:09;;;;;;;26.67;4.28;;;;;;;10.72;100.00;100231.63;5022837;28;20404;-75
2023/01/12 11:25:43;;;;;;;31.33;4.57;;;;;;;10.73;100.00;100249.19;5040274;28;20492;-74
2023/01/12 11:28:08;;;;;;;;;;;;;;;10.74;100.00;100239.53;5026434;28;20030;-74
2023/01/12 11:30:45;;;;;;;43.13;4.97;;;;;;;10.73;100.00;100243.91;5025516;28;19924;-75
2023/01/12 11:33:45;;;;;;;32.83;5.20;;;;;;;10.80;100.00;100260.63;5024880;28;20314;-74
2023/01/12 11:36:21;;;;;;;24.83;4.63;;;;;;;10.76;100.00;100241.31;5030118;28;20520;-74
2023/01/12 11:38:49;;;;;;;45.83;5.35;;;;;;;10.80;100.00;100240.44;5024905;28;20459;-73
2023/01/12 11:41:33;;;;;;;20.55;4.43;;;;;;;10.80;100.00;100245.72;5058530;28;20029;-73
2023/01/12 11:44:33;;;;;;;32.40;4.32;;;;;;;10.80;100.00;100229.91;5026941;28;20469;-73
2023/01/12 11:47:10;;;;;;;28.60;4.18;;;;;;;10.82;100.00;100231.69;5025867;28;20076;-75
2023/01/12 11:50:16;;;;;;;37.80;4.40;;;;;;;10.82;100.00;100258.00;5034395;28;20035;-73
2023/01/12 11:52:42;;;;;;;37.72;4.43;;;;;;;10.77;100.00;100227.28;5015544;28;20586;-74
2023/01/12 11:55:14;;;;;;;31.30;5.10;;;;;;;10.75;100.00;100226.38;5042657;28;20024;-74
2023/01/12 11:57:54;;;;;;;31.92;4.95;;;;;;;10.74;100.00;100223.75;5039825;28;20033;-74
2023/01/12 12:00:45;;;;;;;32.67;4.53;;;;;;;10.74;100.00;100239.53;5043831;28;20397;-73